Time;durP1;ratioP1;P1;durP2;ratioP2;P2;SDS_P1;SDS_P2;PMS_P1;PMS_P2;Temp;Humidity;BMP_temperature;BMP_pressure;BME280_temperature;BME280_humidity;BME280_pressure;Samples;Min_cycle;Max_cycle;Signal;HPM_P1;HPM_P2
2021/01/24 00:00:10;;;;;;;40.45;21.45;;;;;;;0.27;100.00;99025.06;4975601;28;20057;-80
2021/01/24 00:02:37;;;;;;;43.33;22.13;;;;;;;0.13;100.00;99020.47;4978101;28;20055;-79
2021/01/24 00:05:05;;;;;;;46.33;21.98;;;;;;;0.09;100.00;99021.50;4968559;28;20537;-80
2021/01/24 00:07:33;;;;;;;46.90;22.52;;;;;;;0.08;100.00;99023.25;4965651;28;20360;-80
2021/01/24 00:10:00;;;;;;;44.78;22.25;;;;;;;0.15;100.00;99029.03;4977733;28;20093;-80
2021/01/24 00:12:27;;;;;;;43.10;21.33;;;;;;;0.43;100.00;99026.94;4980288;28;20065;-79
2021/01/24 00:14:54;;;;;;;38.17;21.60;;;;;;;0.65;100.00;99028.59;4977833;28;20050;-80
2021/01/24 00:17:22;;;;;;;40.47;22.40;;;;;;;0.81;99.89;99023.56;4976803;28;20098;-80
2021/01/24 00:19:49;;;;;;;37.85;20.23;;;;;;;0.97;99.13;99027.16;4964835;28;20611;-80
2021/01/24 00:22:16;;;;;;;40.70;21.35;;;;;;;1.02;98.61;99020.84;4999608;28;20050;-78
2021/01/24 00:24:43;;;;;;;34.60;19.10;;;;;;;1.04;97.56;99018.22;4989153;28;20038;-78
2021/01/24 00:27:10;;;;;;;34.10;19.23;;;;;;;1.08;97.43;99016.31;4988394;28;20061;-79
2021/01/24 00:29:37;;;;;;;36.60;18.55;;;;;;;1.14;96.92;99019.47;5009184;28;20085;-79
2021/01/24 00:32:04;;;;;;;33.60;19.27;;;;;;;1.14;97.23;99016.03;4985282;28;20047;-80
2021/01/24 00:34:32;;;;;;;30.17;18.23;;;;;;;1.08;97.12;99016.31;4996255;28;20069;-79
2021/01/24 00:36:59;;;;;;;36.28;19.08;;;;;;;1.13;96.40;99014.38;4970624;28;20118;-79
2021/01/24 00:39:26;;;;;;;35.95;19.25;;;;;;;1.10;96.63;99019.69;4975045;28;20061;-80
2021/01/24 00:41:54;;;;;;;30.13;18.23;;;;;;;1.16;95.39;99016.78;4963697;28;20113;-80
2021/01/24 00:44:21;;;;;;;39.92;19.83;;;;;;;1.21;95.65;99014.81;4973190;28;20515;-81
2021/01/24 00:46:48;;;;;;;35.85;19.83;;;;;;;1.12;96.60;99020.44;4980897;28;20043;-80
2021/01/24 00:49:15;;;;;;;30.75;17.50;;;;;;;1.21;95.82;99007.06;4979189;28;20528;-80
2021/01/24 00:51:42;;;;;;;33.92;19.27;;;;;;;1.22;95.21;99011.34;4994697;28;20050;-79
2021/01/24 00:54:09;;;;;;;35.47;19.80;;;;;;;1.19;95.14;99020.09;4989573;28;20060;-79
2021/01/24 00:56:37;;;;;;;31.95;19.30;;;;;;;1.17;95.31;99021.94;4992906;28;20050;-78
2021/01/24 00:59:04;;;;;;;33.33;18.88;;;;;;;1.13;95.52;99016.97;4967662;28;20094;-79
2021/01/24 01:01:31;;;;;;;31.83;18.23;;;;;;;1.17;95.80;99021.94;4985461;28;20043;-78
2021/01/24 01:03:59;;;;;;;33.30;18.48;;;;;;;1.11;95.63;99027.38;4987213;28;20070;-79
2021/01/24 01:06:26;;;;;;;32.83;18.20;;;;;;;1.18;94.82;99030.53;4990785;28;20038;-79
2021/01/24 01:08:53;;;;;;;34.25;19.40;;;;;;;0.98;95.75;99034.03;4987924;28;20247;-79
2021/01/24 01:11:21;;;;;;;32.97;18.70;;;;;;;1.02;95.36;99033.81;4982993;28;20065;-78
2021/01/24 01:13:48;;;;;;;30.70;18.52;;;;;;;0.89;95.99;99035.28;4999177;28;20102;-80
2021/01/24 01:16:15;;;;;;;34.92;18.65;;;;;;;0.70;96.46;99035.25;4979002;28;20059;-79
2021/01/24 01:18:45;;;;;;;31.40;18.20;;;;;;;0.73;97.08;99029.13;4971613;28;20064;-79
2021/01/24 01:21:14;;;;;;;34.35;18.63;;;;;;;0.72;96.98;99032.59;4967636;28;20043;-79
2021/01/24 01:23:42;;;;;;;33.75;18.45;;;;;;;0.73;97.26;99035.13;4989289;28;20061;-80
2021/01/24 01:26:09;;;;;;;35.88;19.83;;;;;;;0.63;97.64;99030.41;5001642;28;20065;-80
2021/01/24 01:28:39;;;;;;;36.63;18.63;;;;;;;0.79;97.02;99033.19;5001334;28;20034;-79
2021/01/24 01:31:06;;;;;;;36.90;19.25;;;;;;;1.00;96.08;99025.28;4973134;28;20101;-78
2021/01/24 01:33:33;;;;;;;32.78;17.92;;;;;;;0.95;95.82;99027.25;4970017;28;20061;-79
2021/01/24 01:36:01;;;;;;;42.85;19.23;;;;;;;1.01;96.34;99023.53;4994241;28;20077;-79
2021/01/24 01:38:28;;;;;;;38.63;18.88;;;;;;;0.98;95.89;99027.09;4967067;28;20051;-79
2021/01/24 01:40:56;;;;;;;33.97;18.05;;;;;;;1.15;95.81;99026.31;4975442;28;20038;-79
2021/01/24 01:43:24;;;;;;;28.13;18.15;;;;;;;1.07;95.44;99031.00;4978355;28;20101;-81
2021/01/24 01:45:51;;;;;;;30.25;16.88;;;;;;;1.09;95.44;99026.63;4992572;23;20091;-79
2021/01/24 01:48:18;;;;;;;31.33;17.67;;;;;;;1.10;95.02;99032.63;4994172;28;20060;-79
2021/01/24 01:50:46;;;;;;;33.03;17.98;;;;;;;1.10;95.18;99024.88;4995774;28;20147;-80
2021/01/24 01:53:13;;;;;;;35.92;17.95;;;;;;;1.05;95.55;99025.06;4994275;28;20059;-80
2021/01/24 01:55:41;;;;;;;31.90;17.67;;;;;;;1.12;95.02;99026.47;4974310;28;20057;-81
2021/01/24 01:58:08;;;;;;;29.65;18.00;;;;;;;1.13;95.52;99024.72;5001539;28;20065;-79
2021/01/24 02:00:36;;;;;;;31.95;18.15;;;;;;;0.96;95.16;99038.44;4993764;28;20474;-79
2021/01/24 02:03:10;;;;;;;33.10;18.65;;;;;;;0.98;95.20;99029.69;4983331;28;20057;-79
2021/01/24 02:05:49;;;;;;;33.80;18.27;;;;;;;1.11;94.94;99032.56;4996446;28;20054;-78
2021/01/24 02:08:22;;;;;;;31.50;17.95;;;;;;;1.00;95.37;99027.88;4996585;28;20046;-80
2021/01/24 02:10:58;;;;;;;30.70;17.25;;;;;;;0.92;95.30;99034.31;4990311;28;20042;-80
2021/01/24 02:13:52;;;;;;;30.75;17.02;;;;;;;0.94;95.36;99030.72;4978249;28;20486;-79
2021/01/24 02:16:20;;;;;;;31.50;17.15;;;;;;;1.17;94.52;99024.53;5006486;28;20404;-80
2021/01/24 02:18:50;;;;;;;26.60;16.23;;;;;;;1.08;94.69;99032.72;4984581;28;20044;-80
2021/01/24 02:21:28;;;;;;;28.98;16.42;;;;;;;1.10;93.96;99033.47;4993592;28;20064;-79
2021/01/24 02:24:00;;;;;;;28.83;15.75;;;;;;;0.99;94.65;99030.50;4992307;28;20045;-78
2021/01/24 02:26:39;;;;;;;28.50;15.70;;;;;;;1.06;94.52;99031.09;4991918;28;20177;-79
2021/01/24 02:29:32;;;;;;;27.15;16.63;;;;;;;0.91;94.92;99033.47;4986953;28;20054;-80
2021/01/24 02:32:01;;;;;;;27.50;16.08;;;;;;;0.94;94.89;99029.88;5012240;28;20038;-80
2021/01/24 02:34:32;;;;;;;39.58;16.65;;;;;;;1.02;94.75;99032.97;4997540;28;20038;-80
2021/01/24 02:37:00;;;;;;;32.83;16.25;;;;;;;1.07;94.69;99031.00;5000437;28;20080;-78
2021/01/24 02:39:29;;;;;;;25.40;15.00;;;;;;;1.15;94.60;99028.91;4966089;28;20057;-80
2021/01/24 02:41:57;;;;;;;30.77;17.05;;;;;;;1.12;94.89;99026.47;5006612;28;20070;-79
2021/01/24 02:44:26;;;;;;;27.10;15.80;;;;;;;1.19;93.94;99027.88;5000304;28;20058;-80
2021/01/24 02:46:57;;;;;;;29.67;15.40;;;;;;;1.15;93.89;99022.91;4998727;28;20054;-80
2021/01/24 02:49:28;;;;;;;31.02;15.48;;;;;;;1.18;93.96;99025.34;5005762;28;20082;-79
2021/01/24 02:51:57;;;;;;;27.60;15.65;;;;;;;1.23;93.80;99025.97;4982858;28;20051;-80
2021/01/24 02:54:26;;;;;;;28.67;16.52;;;;;;;1.20;93.36;99021.78;5004598;28;20416;-79
2021/01/24 02:56:54;;;;;;;30.80;17.20;;;;;;;1.17;93.70;99015.88;4997751;28;20035;-80
2021/01/24 02:59:22;;;;;;;30.33;18.13;;;;;;;1.10;93.85;99020.53;5013850;28;20408;-80
2021/01/24 03:01:49;;;;;;;23.75;14.85;;;;;;;1.21;94.14;99018.25;4986741;28;20049;-80
2021/01/24 03:04:17;;;;;;;30.30;16.83;;;;;;;1.22;93.80;99024.31;4988719;28;20374;-80
2021/01/24 03:06:44;;;;;;;34.55;17.05;;;;;;;1.21;93.02;99010.47;5010029;28;20527;-80
2021/01/24 03:09:12;;;;;;;31.42;16.10;;;;;;;1.23;93.76;99007.84;5011084;28;20038;-79
2021/01/24 03:11:43;;;;;;;28.00;16.23;;;;;;;1.31;93.60;99013.50;4998573;28;20041;-80
2021/01/24 03:14:20;;;;;;;30.80;16.05;;;;;;;1.28;93.26;99003.28;4996455;28;20078;-80
2021/01/24 03:16:48;;;;;;;29.40;15.30;;;;;;;1.26;93.16;98995.59;5001720;28;20037;-79
2021/01/24 03:19:21;;;;;;;27.92;15.90;;;;;;;1.29;94.41;99001.53;4996377;28;20062;-80
2021/01/24 03:21:49;;;;;;;26.88;14.90;;;;;;;1.24;93.65;98999.97;4995270;28;20054;-80
2021/01/24 03:24:24;;;;;;;30.52;16.50;;;;;;;1.15;93.63;98992.63;4993218;28;20046;-80
2021/01/24 03:26:51;;;;;;;31.85;16.45;;;;;;;1.18;93.78;98992.50;5005914;28;20076;-79
2021/01/24 03:29:19;;;;;;;27.67;15.00;;;;;;;1.10;93.94;98993.78;4983183;28;20509;-81
2021/01/24 03:31:47;;;;;;;29.88;16.33;;;;;;;1.02;94.84;98997.53;5007085;28;20109;-79
2021/01/24 03:34:20;;;;;;;33.97;15.98;;;;;;;0.97;94.95;98996.06;4984663;28;20066;-80
2021/01/24 03:36:48;;;;;;;29.85;15.70;;;;;;;1.09;94.60;98990.34;4998174;28;20066;-80
2021/01/24 03:39:16;;;;;;;32.15;15.18;;;;;;;1.22;94.09;98991.44;4984455;28;20133;-79
2021/01/24 03:41:44;;;;;;;27.50;15.57;;;;;;;1.25;93.78;98998.22;5011353;28;20092;-79
2021/01/24 03:44:11;;;;;;;26.25;14.90;;;;;;;1.24;93.92;98997.38;4981363;28;20069;-79
2021/01/24 03:46:39;;;;;;;27.23;15.00;;;;;;;1.24;94.38;98997.38;5003038;28;20483;-80
2021/01/24 03:49:07;;;;;;;26.67;14.55;;;;;;;1.25;93.85;98996.47;4999243;28;20055;-81
2021/01/24 03:51:43;;;;;;;25.42;14.40;;;;;;;1.29;94.29;98993.75;4998807;28;20058;-80
2021/01/24 03:54:10;;;;;;;28.17;15.40;;;;;;;1.43;93.79;98997.34;4975633;28;20054;-78
2021/01/24 03:56:37;;;;;;;28.73;16.00;;;;;;;1.38;93.35;98988.97;4988174;28;20357;-79
2021/01/24 03:59:05;;;;;;;26.38;15.88;;;;;;;1.33;93.74;98988.34;4997861;28;20031;-80
2021/01/24 04:01:33;;;;;;;24.55;13.82;;;;;;;1.42;94.06;99000.03;4994242;28;20058;-82
2021/01/24 04:04:01;;;;;;;29.20;15.48;;;;;;;1.34;93.31;98992.59;4988073;28;20049;-80
2021/01/24 04:06:28;;;;;;;24.70;13.68;;;;;;;1.38;93.99;98988.97;4993860;28;21027;-78
2021/01/24 04:08:55;;;;;;;28.45;14.95;;;;;;;1.43;93.39;98986.97;5011123;28;20038;-79
2021/01/24 04:11:22;;;;;;;25.65;14.07;;;;;;;1.51;93.26;98987.47;4997139;28;20097;-80
2021/01/24 04:13:49;;;;;;;27.65;15.35;;;;;;;1.57;92.73;98993.25;4999003;28;20069;-80
2021/01/24 04:16:16;;;;;;;27.40;14.88;;;;;;;1.55;92.75;98995.94;5012455;28;20069;-80
2021/01/24 04:18:43;;;;;;;24.77;13.50;;;;;;;1.33;93.88;98990.09;5003426;28;20073;-79
2021/01/24 04:21:11;;;;;;;26.33;14.27;;;;;;;1.41;93.68;98988.81;5001931;28;20047;-80
2021/01/24 04:23:38;;;;;;;26.42;14.13;;;;;;;1.50;93.79;98990.97;5015611;28;20054;-80
2021/01/24 04:26:05;;;;;;;25.50;14.55;;;;;;;1.49;93.61;98988.47;4998544;28;20045;-80
2021/01/24 04:28:32;;;;;;;28.02;14.88;;;;;;;1.50;93.60;98992.72;5021744;28;20022;-80
2021/01/24 04:30:59;;;;;;;25.85;12.40;;;;;;;1.47;93.24;98990.28;4992986;28;20042;-79
2021/01/24 04:33:26;;;;;;;27.38;13.50;;;;;;;1.53;92.93;98984.78;5002683;28;20812;-79
2021/01/24 04:35:54;;;;;;;26.70;15.07;;;;;;;1.48;93.50;98989.34;4975293;28;20066;-79
2021/01/24 04:38:20;;;;;;;22.63;13.02;;;;;;;1.55;93.41;98987.31;4998645;28;20143;-79
2021/01/24 04:40:48;;;;;;;23.38;13.30;;;;;;;1.58;93.55;98984.59;5009799;28;20046;-79
2021/01/24 04:43:15;;;;;;;28.77;14.50;;;;;;;1.54;93.75;98985.66;4976715;28;20118;-79
2021/01/24 04:45:43;;;;;;;29.35;14.77;;;;;;;1.49;93.75;98981.53;5018335;28;20536;-79
2021/01/24 04:48:10;;;;;;;21.90;12.07;;;;;;;1.49;94.21;98981.53;5001234;28;20063;-80
2021/01/24 04:50:37;;;;;;;22.83;12.18;;;;;;;1.47;93.70;98974.72;4981285;28;20046;-78
2021/01/24 04:53:04;;;;;;;23.75;12.40;;;;;;;1.43;94.36;98974.00;5004316;28;20042;-79
2021/01/24 04:55:31;;;;;;;22.00;12.18;;;;;;;1.41;94.22;98972.44;5016384;28;20054;-79
2021/01/24 04:57:59;;;;;;;25.77;12.98;;;;;;;1.36;94.51;98967.47;4988397;28;20093;-79
2021/01/24 05:00:26;;;;;;;20.98;12.10;;;;;;;1.35;95.14;98965.78;4999041;28;20030;-81
2021/01/24 05:02:53;;;;;;;23.88;13.50;;;;;;;1.30;95.00;98965.16;4999525;28;20046;-79
2021/01/24 05:05:20;;;;;;;25.20;12.82;;;;;;;1.30;95.53;98965.16;4988909;28;20517;-79
2021/01/24 05:07:55;;;;;;;23.15;13.68;;;;;;;1.21;95.40;98966.41;4996804;28;20104;-79
2021/01/24 05:10:28;;;;;;;23.25;12.18;;;;;;;1.16;95.46;98957.19;4995360;28;20043;-80
2021/01/24 05:12:56;;;;;;;21.60;12.23;;;;;;;1.09;96.02;98948.03;4975841;28;20053;-80
2021/01/24 05:15:23;;;;;;;27.63;13.65;;;;;;;1.09;96.12;98958.41;5009093;28;20062;-79
2021/01/24 05:18:01;;;;;;;24.95;12.70;;;;;;;1.09;96.60;98951.47;4989614;28;20050;-78
2021/01/24 05:20:30;;;;;;;21.92;12.25;;;;;;;0.96;97.04;98952.94;4998421;28;20042;-79
2021/01/24 05:22:59;;;;;;;22.05;12.75;;;;;;;0.98;97.42;98951.94;4973168;28;20106;-78
2021/01/24 05:25:28;;;;;;;26.63;13.27;;;;;;;0.95;97.48;98944.34;5010628;28;20057;-81
2021/01/24 05:27:55;;;;;;;24.10;13.32;;;;;;;1.17;97.70;98948.50;5020095;28;20123;-79
2021/01/24 05:30:32;;;;;;;23.85;12.98;;;;;;;1.08;97.10;98936.84;4990696;28;20088;-81
2021/01/24 05:33:00;;;;;;;26.05;13.43;;;;;;;0.66;98.61;98947.41;5016744;28;20073;-80
2021/01/24 05:35:28;;;;;;;24.85;12.63;;;;;;;0.64;99.58;98952.66;5001297;28;20045;-79
2021/01/24 05:37:57;;;;;;;27.77;14.55;;;;;;;0.75;99.26;98957.34;4999709;28;20130;-79
2021/01/24 05:40:24;;;;;;;25.67;14.15;;;;;;;0.90;98.61;98955.81;4985474;28;20069;-79
2021/01/24 05:42:52;;;;;;;22.40;11.98;;;;;;;0.94;98.86;98950.41;5012920;28;20109;-80
2021/01/24 05:45:19;;;;;;;25.58;12.10;;;;;;;0.95;98.23;98959.03;5009929;28;20062;-79
2021/01/24 05:47:47;;;;;;;25.15;11.98;;;;;;;1.02;97.95;98963.00;5021049;28;20058;-79
2021/01/24 05:50:16;;;;;;;24.73;11.65;;;;;;;1.00;98.55;98963.09;5006399;28;20046;-80
2021/01/24 05:52:48;;;;;;;25.75;12.27;;;;;;;1.05;98.35;98964.63;5001061;28;20064;-80
2021/01/24 05:55:35;;;;;;;26.65;12.18;;;;;;;1.05;97.35;98964.63;5007373;28;20080;-80
2021/01/24 05:58:23;;;;;;;24.05;11.43;;;;;;;0.97;98.01;98963.22;5001104;28;20137;-80
2021/01/24 06:00:51;;;;;;;22.63;11.07;;;;;;;0.73;98.90;98959.19;4978314;28;20055;-80
2021/01/24 06:03:20;;;;;;;20.75;11.00;;;;;;;0.83;98.92;98960.44;4989211;28;20153;-80
2021/01/24 06:05:47;;;;;;;20.63;10.00;;;;;;;0.86;98.12;98952.53;4999084;28;20058;-79
2021/01/24 06:08:15;;;;;;;19.13;10.23;;;;;;;0.88;98.68;98962.81;4998021;28;20129;-81
2021/01/24 06:10:43;;;;;;;22.85;11.45;;;;;;;0.86;98.97;98960.31;4961910;28;20129;-80
2021/01/24 06:13:24;;;;;;;19.60;10.90;;;;;;;0.95;98.66;98964.22;5000766;28;20054;-79
2021/01/24 06:15:53;;;;;;;23.88;11.02;;;;;;;0.99;98.45;98960.56;4977093;28;20050;-79
2021/01/24 06:18:24;;;;;;;21.55;12.13;;;;;;;0.95;98.62;98959.03;5002535;28;20062;-79
2021/01/24 06:20:56;;;;;;;25.20;11.75;;;;;;;0.88;98.43;98965.41;5002182;28;20078;-79
2021/01/24 06:23:40;;;;;;;25.88;12.27;;;;;;;0.89;98.27;98967.91;5002233;28;20057;-80
2021/01/24 06:26:15;;;;;;;20.05;9.70;;;;;;;0.92;99.17;98970.38;4991520;28;20073;-81
2021/01/24 06:28:45;;;;;;;23.15;12.27;;;;;;;0.92;98.89;98969.53;4980514;28;20041;-80
2021/01/24 06:31:18;;;;;;;21.25;10.60;;;;;;;0.83;98.32;98968.22;4984301;28;20101;-80
2021/01/24 06:33:50;;;;;;;22.92;11.93;;;;;;;0.76;98.89;98967.63;4995852;28;20054;-80
2021/01/24 06:36:18;;;;;;;23.80;12.38;;;;;;;0.78;98.97;98977.09;4992889;28;20083;-81
2021/01/24 06:38:53;;;;;;;23.52;11.82;;;;;;;0.83;99.65;98977.75;4981212;28;20403;-80
2021/01/24 06:41:41;;;;;;;24.67;11.63;;;;;;;0.87;99.75;98981.88;5000889;28;20074;-79
2021/01/24 06:44:34;;;;;;;22.80;11.77;;;;;;;0.67;100.00;98980.16;5007843;28;20125;-79
2021/01/24 06:47:03;;;;;;;26.67;11.90;;;;;;;0.54;100.00;98981.63;4962912;28;20073;-79
2021/01/24 06:49:43;;;;;;;30.00;13.63;;;;;;;0.66;100.00;98973.31;5004371;28;20046;-80
2021/01/24 06:52:15;;;;;;;23.30;11.63;;;;;;;0.65;100.00;98988.00;5013301;28;20081;-80
2021/01/24 06:54:47;;;;;;;25.10;12.70;;;;;;;0.72;100.00;98980.78;4994051;28;20053;-80
2021/01/24 06:57:16;;;;;;;19.90;11.05;;;;;;;0.80;99.79;98985.63;4980807;28;20084;-79
2021/01/24 06:59:44;;;;;;;27.25;11.35;;;;;;;0.83;99.22;98980.31;4998229;28;20057;-81
2021/01/24 07:02:26;;;;;;;20.63;10.88;;;;;;;0.71;99.95;98977.38;5001626;28;20061;-80
2021/01/24 07:05:23;;;;;;;22.50;11.35;;;;;;;0.77;99.63;98986.63;4994200;28;20062;-77
2021/01/24 07:07:55;;;;;;;23.80;12.00;;;;;;;0.86;99.93;98986.22;5000543;28;20042;-79
2021/01/24 07:10:38;;;;;;;20.13;10.63;;;;;;;0.93;98.48;98987.59;5014901;28;20030;-78
2021/01/24 07:13:24;;;;;;;20.83;10.82;;;;;;;0.85;99.27;98983.66;4996019;28;20073;-79
2021/01/24 07:16:12;;;;;;;21.73;10.85;;;;;;;0.73;98.72;98985.09;5007550;28;20046;-79
2021/01/24 07:18:43;;;;;;;19.58;10.57;;;;;;;0.59;99.96;98980.53;4992475;28;20057;-78
2021/01/24 07:21:11;;;;;;;26.08;12.48;;;;;;;0.47;100.00;98981.91;5020424;28;20070;-79
2021/01/24 07:23:40;;;;;;;23.65;10.93;;;;;;;0.60;100.00;98987.38;5015719;28;20054;-77
2021/01/24 07:26:10;;;;;;;24.55;12.00;;;;;;;0.85;100.00;98988.84;4997773;28;20126;-79
2021/01/24 07:28:38;;;;;;;26.10;11.60;;;;;;;0.97;99.25;98994.31;5009344;28;20066;-79
2021/01/24 07:31:06;;;;;;;24.25;10.77;;;;;;;1.00;99.63;98988.16;4992083;28;20026;-78
2021/01/24 07:33:34;;;;;;;22.55;11.07;;;;;;;0.93;99.21;98986.75;4989560;28;20262;-78
2021/01/24 07:36:03;;;;;;;21.40;11.00;;;;;;;0.71;99.57;98986.88;4995711;28;20034;-77
2021/01/24 07:38:31;;;;;;;18.75;10.25;;;;;;;0.74;99.70;98986.75;4979561;28;20560;-78
2021/01/24 07:41:00;;;;;;;23.35;10.38;;;;;;;0.96;100.00;98982.28;4999810;28;20049;-77
2021/01/24 07:43:28;;;;;;;27.25;12.13;;;;;;;0.97;99.09;98989.13;4976376;28;21500;-78
2021/01/24 07:45:55;;;;;;;21.77;11.50;;;;;;;1.04;99.53;98984.53;4998671;28;20054;-78
2021/01/24 07:48:24;;;;;;;26.38;11.40;;;;;;;1.15;98.93;98986.63;5007568;28;20061;-78
2021/01/24 07:50:54;;;;;;;24.95;11.80;;;;;;;1.20;98.11;98982.88;4995424;28;20138;-78
2021/01/24 07:53:24;;;;;;;21.00;11.43;;;;;;;1.17;98.32;98984.78;5005977;28;20048;-77
2021/01/24 07:55:52;;;;;;;25.80;12.90;;;;;;;1.15;97.79;98984.03;4996952;28;20964;-77
2021/01/24 07:58:23;;;;;;;32.05;18.83;;;;;;;1.15;97.89;98984.84;5001265;28;20130;-80
2021/01/24 08:00:51;;;;;;;26.60;15.18;;;;;;;0.98;98.25;98989.97;5005951;28;20042;-78
2021/01/24 08:03:20;;;;;;;24.05;12.85;;;;;;;1.05;98.65;98982.78;4996320;28;20061;-79
2021/01/24 08:05:48;;;;;;;23.92;11.77;;;;;;;1.02;99.02;98989.75;4966024;28;20521;-77
2021/01/24 08:08:15;;;;;;;21.38;10.38;;;;;;;1.25;98.73;98987.84;4976513;28;20068;-77
2021/01/24 08:10:43;;;;;;;16.85;8.98;;;;;;;1.38;98.40;98985.53;4967966;28;20062;-76
2021/01/24 08:13:10;;;;;;;20.75;9.43;;;;;;;1.45;97.69;98985.16;4973063;28;20114;-76
2021/01/24 08:15:37;;;;;;;21.05;9.15;;;;;;;1.45;97.62;98986.94;4977912;28;20055;-75
2021/01/24 08:18:04;;;;;;;17.73;8.57;;;;;;;1.40;97.93;98983.72;4974561;28;20038;-76
2021/01/24 08:20:32;;;;;;;16.27;8.98;;;;;;;1.46;97.85;98992.03;4984030;28;20042;-75
2021/01/24 08:23:00;;;;;;;16.65;7.63;;;;;;;1.60;96.94;98993.97;4979984;28;20078;-76
2021/01/24 08:25:27;;;;;;;16.65;7.65;;;;;;;1.69;96.55;98988.31;4981778;28;20052;-75
2021/01/24 08:27:54;;;;;;;19.63;8.20;;;;;;;1.60;96.66;98993.13;4996213;28;20063;-76
2021/01/24 08:30:21;;;;;;;16.67;8.63;;;;;;;1.61;96.28;98989.59;4962741;28;20041;-76
2021/01/24 08:32:49;;;;;;;14.32;8.40;;;;;;;1.61;96.70;98994.78;4963804;28;20861;-75
2021/01/24 08:35:16;;;;;;;17.58;7.53;;;;;;;1.57;97.21;99003.63;4965551;28;20678;-76
2021/01/24 08:37:44;;;;;;;22.70;10.15;;;;;;;1.14;98.26;98996.16;4983829;28;20040;-75
2021/01/24 08:40:12;;;;;;;15.15;7.97;;;;;;;1.30;97.88;98995.41;5000682;28;20083;-76
2021/01/24 08:42:46;;;;;;;19.25;9.45;;;;;;;1.48;97.37;98997.13;4979603;28;20064;-74
2021/01/24 08:45:24;;;;;;;20.05;9.27;;;;;;;1.55;96.16;98995.94;4974846;28;20058;-78
2021/01/24 08:47:59;;;;;;;17.13;8.57;;;;;;;1.71;96.27;98999.47;4986562;28;20152;-75
2021/01/24 08:50:30;;;;;;;;;;;;;;;1.71;95.94;98999.47;4983459;28;20051;-77
2021/01/24 08:53:07;;;;;;;15.77;7.28;;;;;;;1.70;95.53;99004.72;4990593;28;21052;-75
2021/01/24 08:55:50;;;;;;;16.38;8.73;;;;;;;1.65;95.72;98996.31;4965231;28;20246;-73
2021/01/24 08:58:28;;;;;;;15.93;8.52;;;;;;;1.71;95.62;98993.44;4980180;28;20391;-76
2021/01/24 09:01:05;;;;;;;13.02;7.28;;;;;;;1.71;95.60;99006.41;4984625;28;20065;-75
2021/01/24 09:03:33;;;;;;;17.85;8.90;;;;;;;1.69;95.83;99006.47;4991170;28;20058;-76
2021/01/24 09:06:19;;;;;;;16.35;8.13;;;;;;;1.57;96.10;99006.22;4980740;28;20070;-75
2021/01/24 09:08:49;;;;;;;18.42;8.88;;;;;;;1.62;96.65;99012.03;4981939;28;20828;-75
2021/01/24 09:11:16;;;;;;;16.27;9.15;;;;;;;1.67;96.26;99010.09;4988068;28;20062;-77
2021/01/24 09:13:43;;;;;;;14.65;9.15;;;;;;;1.64;96.42;99005.88;4988980;28;20066;-77
2021/01/24 09:16:10;;;;;;;17.90;9.85;;;;;;;1.68;96.62;99009.16;4988263;28;20046;-74
2021/01/24 09:18:38;;;;;;;18.05;9.07;;;;;;;1.63;96.96;98998.16;4988588;28;20050;-76
2021/01/24 09:21:06;;;;;;;19.42;9.05;;;;;;;1.75;96.03;99007.94;4956956;28;20045;-77
2021/01/24 09:23:33;;;;;;;17.00;9.57;;;;;;;1.48;97.03;99008.34;4992883;28;20039;-77
2021/01/24 09:26:00;;;;;;;15.27;9.25;;;;;;;1.55;96.40;99008.91;4992899;28;20512;-77
2021/01/24 09:28:27;;;;;;;20.83;8.75;;;;;;;1.57;96.43;99009.66;4984115;28;20034;-74
2021/01/24 09:30:54;;;;;;;27.15;10.75;;;;;;;1.59;96.93;99013.03;5014322;28;20038;-76
2021/01/24 09:33:21;;;;;;;19.42;9.90;;;;;;;1.63;96.93;99011.97;4997341;28;20122;-76
2021/01/24 09:35:48;;;;;;;16.05;9.27;;;;;;;1.74;96.79;99012.28;4996800;28;20152;-77
2021/01/24 09:38:16;;;;;;;17.73;8.82;;;;;;;1.74;96.66;99008.84;4992277;28;20058;-77
2021/01/24 09:40:43;;;;;;;17.60;9.65;;;;;;;1.70;96.24;99010.75;5013585;28;20054;-77
2021/01/24 09:43:10;;;;;;;17.92;8.23;;;;;;;1.70;95.71;99012.50;5023286;28;20073;-77
2021/01/24 09:45:38;;;;;;;16.42;9.43;;;;;;;1.68;96.38;99010.00;4996797;28;20309;-77
2021/01/24 09:48:07;;;;;;;14.80;8.27;;;;;;;1.46;96.69;99004.16;4995622;28;20082;-74
2021/01/24 09:50:34;;;;;;;17.38;8.82;;;;;;;1.64;97.34;99005.88;5002630;28;20615;-76
2021/01/24 09:53:01;;;;;;;19.55;10.43;;;;;;;1.69;96.54;99005.66;4981879;28;20069;-75
2021/01/24 09:55:28;;;;;;;16.60;9.32;;;;;;;1.78;96.88;98998.25;4993792;28;20050;-76
2021/01/24 09:57:55;;;;;;;17.02;9.00;;;;;;;1.79;95.79;99004.28;4991784;28;20085;-78
2021/01/24 10:00:22;;;;;;;17.95;8.05;;;;;;;1.74;95.68;99001.06;4976136;28;20710;-77
2021/01/24 10:02:50;;;;;;;18.65;8.73;;;;;;;1.61;95.98;99002.56;4978551;28;20407;-77
2021/01/24 10:05:17;;;;;;;18.45;9.48;;;;;;;1.70;96.11;99002.97;4975605;28;20069;-77
2021/01/24 10:07:44;;;;;;;20.95;9.85;;;;;;;1.87;95.77;99007.34;4990558;28;20518;-77
2021/01/24 10:10:12;;;;;;;16.15;9.05;;;;;;;1.88;95.44;99009.00;4986165;28;20713;-77
2021/01/24 10:12:39;;;;;;;16.45;9.07;;;;;;;1.82;95.22;99011.91;4989276;28;20050;-77
2021/01/24 10:15:07;;;;;;;17.38;9.07;;;;;;;1.89;94.32;99012.44;5007377;28;20047;-76
2021/01/24 10:17:35;;;;;;;13.48;8.18;;;;;;;1.79;95.10;99006.88;4977798;28;20050;-76
2021/01/24 10:20:03;;;;;;;19.15;9.07;;;;;;;1.90;95.67;99012.38;4958543;28;20042;-76
2021/01/24 10:22:31;;;;;;;20.70;10.15;;;;;;;1.83;95.95;99016.19;4991970;28;20054;-75
2021/01/24 10:24:58;;;;;;;16.92;8.68;;;;;;;1.91;94.92;99014.06;4991516;28;20051;-77
2021/01/24 10:27:25;;;;;;;19.05;9.88;;;;;;;1.81;95.67;99009.41;4983299;28;20065;-76
2021/01/24 10:29:52;;;;;;;18.08;9.38;;;;;;;1.79;96.60;99012.06;4980279;28;20420;-77
2021/01/24 10:32:19;;;;;;;15.75;8.40;;;;;;;1.93;95.41;99006.19;4999213;28;20524;-76
2021/01/24 10:35:00;;;;;;;15.50;8.07;;;;;;;2.01;94.46;99010.09;4993521;28;20045;-76
2021/01/24 10:37:29;;;;;;;16.85;7.95;;;;;;;1.98;96.06;99004.19;4967289;28;20045;-77
2021/01/24 10:39:56;;;;;;;19.00;8.77;;;;;;;2.11;96.08;99007.03;4987912;28;20241;-79
2021/01/24 10:42:23;;;;;;;12.70;7.75;;;;;;;2.24;93.65;99008.94;5000733;28;20370;-75
2021/01/24 10:44:51;;;;;;;14.32;9.02;;;;;;;1.96;95.15;99004.28;4993691;28;20046;-76
2021/01/24 10:47:18;;;;;;;13.65;8.23;;;;;;;2.07;95.10;99008.94;5012392;28;20114;-75
2021/01/24 10:49:46;;;;;;;17.00;8.77;;;;;;;2.13;94.32;99008.66;5004823;28;20054;-76
2021/01/24 10:52:14;;;;;;;15.40;8.07;;;;;;;1.98;94.56;98999.00;4994897;28;20054;-76
2021/01/24 10:54:42;;;;;;;25.63;9.88;;;;;;;1.80;95.95;99003.34;4972578;28;20043;-76
2021/01/24 10:57:09;;;;;;;14.70;8.55;;;;;;;1.67;96.57;99010.09;4988546;28;20062;-76
2021/01/24 10:59:37;;;;;;;16.60;9.23;;;;;;;1.76;96.45;99007.88;4985960;28;20077;-77
2021/01/24 11:02:06;;;;;;;20.38;10.13;;;;;;;1.81;96.35;99009.41;4965328;28;20049;-76
2021/01/24 11:04:35;;;;;;;21.25;8.73;;;;;;;1.85;95.40;99008.34;4955701;28;20046;-74
2021/01/24 11:07:04;;;;;;;18.45;9.60;;;;;;;1.81;95.58;99001.63;4968216;28;20054;-75
2021/01/24 11:09:31;;;;;;;15.95;9.43;;;;;;;1.72;95.79;99008.94;4974700;28;20065;-76
2021/01/24 11:11:59;;;;;;;16.05;9.00;;;;;;;1.72;95.64;99010.69;4977809;28;20047;-75
2021/01/24 11:14:28;;;;;;;18.10;10.02;;;;;;;1.70;96.21;99009.91;4972271;28;20760;-76
2021/01/24 11:16:56;;;;;;;18.40;9.55;;;;;;;1.58;96.52;99015.72;4984292;28;20661;-76
2021/01/24 11:19:24;;;;;;;19.63;9.85;;;;;;;1.64;96.77;99015.41;4986174;28;20049;-76
2021/01/24 11:21:52;;;;;;;16.73;8.38;;;;;;;1.64;96.42;99011.06;4996945;28;20496;-76
2021/01/24 11:24:20;;;;;;;14.45;8.23;;;;;;;1.65;95.75;99009.28;4969685;28;20050;-75
2021/01/24 11:26:49;;;;;;;16.63;8.27;;;;;;;1.50;96.49;99003.09;4988015;28;20069;-77
2021/01/24 11:29:17;;;;;;;18.52;9.57;;;;;;;1.52;96.99;99007.28;5004373;28;20073;-77
2021/01/24 11:31:45;;;;;;;20.27;9.65;;;;;;;1.61;97.13;99006.00;4999732;28;20052;-77
2021/01/24 11:34:14;;;;;;;13.35;8.27;;;;;;;1.61;96.58;99007.75;4996858;28;20053;-77
2021/01/24 11:36:42;;;;;;;17.23;9.40;;;;;;;1.76;96.25;99004.44;4972374;28;20579;-77